createdAt,value
2022-10-05T00:00:48.310Z,63.28
2022-10-05T00:03:16.032Z,63.21
2022-10-05T00:05:45.882Z,63.10
2022-10-05T00:08:34.370Z,62.90
2022-10-05T00:11:02.529Z,62.72
2022-10-05T00:13:31.522Z,62.67
2022-10-05T00:16:20.769Z,62.48
2022-10-05T00:18:50.752Z,62.42
2022-10-05T00:21:25.470Z,62.24
2022-10-05T00:24:20.280Z,62.39
2022-10-05T00:26:52.726Z,62.43
2022-10-05T00:29:25.203Z,62.53
2022-10-05T00:31:53.101Z,62.50
2022-10-05T00:34:20.830Z,62.31
2022-10-05T00:36:49.044Z,62.42
2022-10-05T00:39:18.421Z,62.43
2022-10-05T00:41:55.101Z,62.24
2022-10-05T00:44:34.171Z,62.12
2022-10-05T00:47:11.111Z,62.37
2022-10-05T00:50:04.257Z,62.17
2022-10-05T00:52:51.375Z,62.13
2022-10-05T00:55:51.663Z,62.12
2022-10-05T00:58:28.912Z,62.22
2022-10-05T01:01:17.626Z,62.14
2022-10-05T01:03:54.517Z,62.07
2022-10-05T01:07:00.934Z,61.93
2022-10-05T01:09:53.713Z,61.74
2022-10-05T01:12:30.751Z,61.75
2022-10-05T01:15:07.718Z,61.52
2022-10-05T01:17:49.732Z,61.44
2022-10-05T01:20:17.386Z,61.42
2022-10-05T01:23:15.764Z,61.36
2022-10-05T01:26:04.765Z,61.30
2022-10-05T01:28:38.327Z,61.22
2022-10-05T01:31:35.408Z,61.08
2022-10-05T01:34:13.386Z,61.09
2022-10-05T01:36:52.286Z,61.06
2022-10-05T01:39:57.137Z,61.02
2022-10-05T01:42:30.901Z,60.98
2022-10-05T01:45:19.977Z,61.08
2022-10-05T01:47:53.123Z,61.07
2022-10-05T01:51:03.874Z,61.01
2022-10-05T01:53:46.763Z,61.04
2022-10-05T01:56:26.515Z,61.16
2022-10-05T01:58:56.979Z,61.10
2022-10-05T02:01:37.102Z,61.10
2022-10-05T02:04:35.601Z,61.20
2022-10-05T02:07:10.775Z,61.29
2022-10-05T02:09:55.545Z,61.21
2022-10-05T02:12:28.500Z,61.27
2022-10-05T02:15:03.265Z,61.25
2022-10-05T02:17:59.303Z,61.35
2022-10-05T02:20:32.586Z,61.51
2022-10-05T02:23:05.268Z,61.40
2022-10-05T02:25:39.543Z,61.48
2022-10-05T02:28:15.565Z,61.65
2022-10-05T02:30:50.590Z,61.59
2022-10-05T02:33:33.266Z,61.83
2022-10-05T02:36:17.328Z,62.12
2022-10-05T02:39:02.670Z,62.08
2022-10-05T02:41:42.047Z,62.24
2022-10-05T02:44:55.338Z,62.26
2022-10-05T02:47:42.159Z,62.30
2022-10-05T02:50:39.521Z,62.35
2022-10-05T02:53:36.009Z,62.65
2022-10-05T02:56:15.311Z,62.90
2022-10-05T02:59:28.251Z,63.00
2022-10-05T03:02:05.141Z,63.08
2022-10-05T03:04:45.347Z,63.25
2022-10-05T03:07:31.846Z,63.34
2022-10-05T03:10:12.451Z,63.40
2022-10-05T03:13:10.871Z,63.52
2022-10-05T03:16:06.285Z,63.67
2022-10-05T03:18:59.787Z,63.54
2022-10-05T03:21:52.069Z,63.56
2022-10-05T03:24:38.393Z,63.73
2022-10-05T03:27:14.779Z,63.58
2022-10-05T03:29:42.592Z,63.69
2022-10-05T03:32:27.663Z,63.46
2022-10-05T03:35:33.032Z,63.42
2022-10-05T03:38:21.037Z,63.62
2022-10-05T03:40:56.063Z,63.74
2022-10-05T03:43:57.556Z,63.84
2022-10-05T03:46:31.690Z,63.71
2022-10-05T03:49:14.869Z,63.66
2022-10-05T03:51:47.235Z,63.82
2022-10-05T03:54:25.030Z,63.81
2022-10-05T03:56:56.271Z,63.88
2022-10-05T03:59:42.325Z,63.98
2022-10-05T04:02:24.495Z,63.90
2022-10-05T04:04:59.543Z,63.98
2022-10-05T04:07:35.813Z,64.15
2022-10-05T04:10:10.720Z,64.48
2022-10-05T04:12:46.327Z,64.49
2022-10-05T04:15:54.702Z,64.23
2022-10-05T04:18:29.076Z,64.25
2022-10-05T04:21:08.476Z,64.19
2022-10-05T04:23:43.136Z,64.12
2022-10-05T04:26:25.185Z,64.22
2022-10-05T04:29:15.844Z,64.40
2022-10-05T04:31:47.458Z,64.51
2022-10-05T04:34:34.146Z,64.47
2022-10-05T04:37:08.148Z,64.60
2022-10-05T04:39:36.009Z,64.71
2022-10-05T04:42:12.328Z,64.85
2022-10-05T04:44:59.070Z,65.03
2022-10-05T04:47:56.139Z,65.10
2022-10-05T04:50:46.287Z,65.16
2022-10-05T04:53:22.454Z,65.45
2022-10-05T04:56:09.152Z,65.39
2022-10-05T04:59:04.049Z,65.54
2022-10-05T05:01:48.270Z,65.50
2022-10-05T05:04:52.050Z,65.37
2022-10-05T05:07:42.315Z,65.31
2022-10-05T05:10:43.919Z,65.27
2022-10-05T05:13:30.238Z,65.42
2022-10-05T05:16:19.266Z,65.42
2022-10-05T05:18:54.492Z,65.30
2022-10-05T05:22:00.368Z,65.11
2022-10-05T05:24:46.058Z,64.99
2022-10-05T05:27:32.423Z,64.85
2022-10-05T05:30:17.076Z,64.75
2022-10-05T05:32:53.164Z,64.44
2022-10-05T05:35:45.639Z,64.65
2022-10-05T05:38:27.665Z,64.62
2022-10-05T05:41:12.790Z,64.34
2022-10-05T05:44:13.325Z,64.36
2022-10-05T05:47:03.415Z,64.35
2022-10-05T05:50:01.785Z,64.08
2022-10-05T05:52:47.273Z,63.91
2022-10-05T05:55:30.212Z,63.71
2022-10-05T05:58:17.714Z,63.62
2022-10-05T06:00:59.064Z,63.51
2022-10-05T06:03:40.140Z,63.54
2022-10-05T06:06:14.234Z,63.54
2022-10-05T06:08:47.857Z,63.23
2022-10-05T06:11:32.078Z,63.14
2022-10-05T06:14:05.439Z,62.85
2022-10-05T06:17:15.806Z,62.25
2022-10-05T06:19:46.256Z,62.35
2022-10-05T06:22:29.244Z,62.33
2022-10-05T06:25:12.008Z,62.57
2022-10-05T06:28:09.501Z,62.42
2022-10-05T06:30:57.253Z,62.36
2022-10-05T06:33:33.972Z,62.25
2022-10-05T06:36:18.266Z,62.37
2022-10-05T06:39:07.171Z,62.12
2022-10-05T06:42:03.765Z,61.87
2022-10-05T06:45:08.194Z,61.85
2022-10-05T06:48:12.034Z,62.12
2022-10-05T06:51:17.078Z,61.75
2022-10-05T06:54:19.738Z,61.26
2022-10-05T06:57:16.918Z,61.10
2022-10-05T06:59:57.275Z,61.16
2022-10-05T07:02:54.501Z,61.07
2022-10-05T07:05:52.087Z,60.52
2022-10-05T07:08:37.306Z,60.32
2022-10-05T07:11:17.777Z,60.34
2022-10-05T07:13:57.658Z,60.41
2022-10-05T07:16:53.036Z,60.38
2022-10-05T07:20:04.019Z,60.53
2022-10-05T07:22:50.122Z,60.58
2022-10-05T07:25:27.882Z,60.59
2022-10-05T07:28:34.765Z,60.55
2022-10-05T07:31:05.674Z,60.40
2022-10-05T07:33:38.312Z,60.14
2022-10-05T07:37:10.224Z,59.36
2022-10-05T07:39:59.498Z,59.53
2022-10-05T07:42:46.061Z,59.10
2022-10-05T07:45:33.751Z,58.17
2022-10-05T07:48:23.480Z,58.02
2022-10-05T07:51:14.727Z,57.65
2022-10-05T07:54:06.678Z,57.11
2022-10-05T07:56:41.705Z,57.15
2022-10-05T07:59:36.481Z,56.75
2022-10-05T08:02:34.197Z,56.94
2022-10-05T08:05:17.386Z,56.41
2022-10-05T08:07:48.072Z,56.20
2022-10-05T08:10:30.287Z,55.92
2022-10-05T08:13:25.706Z,55.66
2022-10-05T08:15:57.889Z,55.28
2022-10-05T08:18:46.297Z,54.71
2022-10-05T08:21:16.366Z,55.27
2022-10-05T08:24:25.968Z,55.09
2022-10-05T08:42:21.479Z,53.48
2022-10-05T09:04:11.291Z,53.11
2022-10-05T09:07:08.183Z,53.02
2022-10-05T09:10:01.397Z,52.67
2022-10-05T09:12:54.711Z,52.11
2022-10-05T09:15:56.449Z,52.30
2022-10-05T09:18:29.883Z,52.30
2022-10-05T09:21:25.109Z,51.74
2022-10-05T09:24:13.221Z,51.63
2022-10-05T09:26:42.747Z,51.55
2022-10-05T09:29:53.418Z,51.54
2022-10-05T09:32:40.097Z,50.96
2022-10-05T09:35:26.450Z,51.11
2022-10-05T09:38:08.713Z,51.16
2022-10-05T09:40:54.266Z,50.51
2022-10-05T09:43:45.881Z,50.69
2022-10-05T09:46:51.926Z,50.82
2022-10-05T09:49:25.512Z,50.67
2022-10-05T09:52:32.061Z,50.44
2022-10-05T09:55:20.552Z,50.29
2022-10-05T09:57:54.439Z,50.30
2022-10-05T10:00:38.752Z,50.17
2022-10-05T10:03:43.220Z,50.01
2022-10-05T10:40:20.530Z,47.34
2022-10-05T10:42:54.133Z,46.80
2022-10-05T10:45:45.635Z,47.23
2022-10-05T10:48:19.126Z,47.02
2022-10-05T10:51:03.773Z,47.24
2022-10-05T10:53:47.661Z,47.29
2022-10-05T10:56:29.162Z,46.86
2022-10-05T10:59:17.935Z,46.82
2022-10-05T11:02:15.851Z,45.77
2022-10-05T11:04:46.579Z,46.05
2022-10-05T11:07:39.244Z,45.59
2022-10-05T11:10:26.182Z,45.18
2022-10-05T11:13:08.981Z,45.02
2022-10-05T11:15:58.409Z,45.38
2022-10-05T11:19:02.463Z,45.11
2022-10-05T11:21:38.374Z,45.08
2022-10-05T11:24:38.910Z,45.29
2022-10-05T11:27:51.697Z,45.24
2022-10-05T11:30:31.603Z,45.32
2022-10-05T11:33:12.044Z,45.18
2022-10-05T11:36:09.697Z,45.55
2022-10-05T11:38:55.830Z,45.32
2022-10-05T11:41:56.014Z,44.91
2022-10-05T11:44:46.143Z,44.88
2022-10-05T11:47:39.424Z,44.57
2022-10-05T11:50:47.552Z,44.45
2022-10-05T11:53:25.547Z,44.99
2022-10-05T11:56:09.481Z,44.57
2022-10-05T11:58:57.503Z,44.52
2022-10-05T12:02:04.439Z,44.17
2022-10-05T12:04:56.896Z,43.94
2022-10-05T12:07:42.672Z,44.44
2022-10-05T12:10:43.206Z,44.04
2022-10-05T12:13:21.836Z,44.15
2022-10-05T12:15:57.690Z,44.16
2022-10-05T12:18:31.685Z,44.09
2022-10-05T12:21:22.973Z,44.11
2022-10-05T12:23:58.778Z,44.22
2022-10-05T12:26:28.398Z,44.17
2022-10-05T12:29:08.991Z,44.07
2022-10-05T12:31:50.636Z,44.23
2022-10-05T12:34:27.629Z,44.23
2022-10-05T12:37:17.519Z,44.56
2022-10-05T12:39:50.803Z,44.75
2022-10-05T12:42:30.853Z,44.80
2022-10-05T12:45:14.630Z,44.62
2022-10-05T12:47:54.062Z,44.83
2022-10-05T12:50:37.290Z,44.73
2022-10-05T12:53:23.445Z,44.78
2022-10-05T12:55:57.240Z,45.12
2022-10-05T12:58:48.741Z,45.10
2022-10-05T13:01:35.254Z,45.60
2022-10-05T13:04:34.203Z,45.49
2022-10-05T13:07:28.758Z,45.64
2022-10-05T13:10:12.146Z,45.91
2022-10-05T13:12:39.913Z,45.94
2022-10-05T13:15:07.989Z,45.55
2022-10-05T13:17:51.136Z,45.37
2022-10-05T13:21:01.581Z,45.35
2022-10-05T13:23:43.708Z,46.01
2022-10-05T13:26:17.927Z,45.65
2022-10-05T13:28:53.444Z,46.00
2022-10-05T13:31:40.858Z,45.84
2022-10-05T13:34:30.355Z,46.25
2022-10-05T13:37:34.102Z,46.51
2022-10-05T13:40:12.828Z,46.26
2022-10-05T13:42:40.681Z,46.48
2022-10-05T13:45:21.620Z,46.57
2022-10-05T13:47:55.321Z,47.10
2022-10-05T13:50:43.240Z,46.98
2022-10-05T13:53:15.602Z,47.63
2022-10-05T13:56:00.804Z,47.68
2022-10-05T13:58:48.599Z,48.20
2022-10-05T14:01:36.232Z,48.13
2022-10-05T14:04:27.460Z,48.09
2022-10-05T14:06:55.262Z,48.53
2022-10-05T14:09:34.151Z,48.98
2022-10-05T14:12:04.868Z,48.91
2022-10-05T14:14:42.515Z,49.21
2022-10-05T14:17:15.868Z,49.46
2022-10-05T14:19:46.686Z,49.95
2022-10-05T14:22:25.328Z,49.66
2022-10-05T14:24:55.567Z,50.21
2022-10-05T14:27:27.117Z,49.96
2022-10-05T14:30:01.648Z,50.49
2022-10-05T14:32:32.845Z,50.37
2022-10-05T14:35:05.371Z,50.76
2022-10-05T14:37:44.593Z,51.36
2022-10-05T14:40:26.172Z,51.53
2022-10-05T14:42:54.529Z,51.45
2022-10-05T14:45:30.150Z,51.95
2022-10-05T14:48:01.919Z,51.99
2022-10-05T14:50:31.586Z,52.38
2022-10-05T14:53:11.120Z,52.62
2022-10-05T14:55:45.030Z,52.60
2022-10-05T14:58:28.719Z,52.60
2022-10-05T15:01:07.226Z,52.83
2022-10-05T15:04:02.361Z,53.24
2022-10-05T15:06:33.150Z,53.22
2022-10-05T15:09:33.763Z,53.63
2022-10-05T15:12:03.376Z,53.31
2022-10-05T15:14:40.422Z,53.75
2022-10-05T15:17:20.800Z,53.80
2022-10-05T15:20:05.334Z,53.86
2022-10-05T15:22:42.829Z,54.14
2022-10-05T15:25:33.000Z,54.05
2022-10-05T15:28:24.277Z,54.16
2022-10-05T15:31:05.809Z,54.29
2022-10-05T15:34:08.825Z,54.14
2022-10-05T15:37:03.382Z,54.44
2022-10-05T15:39:46.615Z,54.81
2022-10-05T15:42:18.190Z,54.96
2022-10-05T15:45:07.124Z,54.99
2022-10-05T15:48:10.339Z,55.64
2022-10-05T15:50:44.080Z,55.75
2022-10-05T15:53:22.594Z,56.07
2022-10-05T15:56:22.434Z,55.85
2022-10-05T15:58:55.907Z,56.39
2022-10-05T16:01:32.250Z,56.48
2022-10-05T16:04:17.824Z,56.75
2022-10-05T16:07:16.160Z,56.82
2022-10-05T16:09:53.621Z,57.21
2022-10-05T16:12:35.469Z,57.42
2022-10-05T16:15:26.665Z,57.67
2022-10-05T16:18:00.003Z,57.92
2022-10-05T16:20:42.878Z,57.94
2022-10-05T16:23:28.527Z,57.98
2022-10-05T16:25:57.723Z,58.04
2022-10-05T16:28:58.859Z,58.19
2022-10-05T16:31:32.362Z,58.66
2022-10-05T16:34:23.487Z,59.19
2022-10-05T16:37:37.939Z,59.08
2022-10-05T16:40:19.416Z,59.06
2022-10-05T16:42:57.592Z,59.39
2022-10-05T16:45:44.706Z,59.30
2022-10-05T16:48:23.686Z,59.60
2022-10-05T16:50:55.294Z,59.68
2022-10-05T16:53:34.851Z,59.44
2022-10-05T16:56:17.542Z,59.48
2022-10-05T16:58:57.671Z,59.52
2022-10-05T17:01:50.151Z,59.51
2022-10-05T17:04:36.196Z,59.54
2022-10-05T17:07:10.856Z,59.51
2022-10-05T17:09:43.139Z,59.61
2022-10-05T17:12:52.999Z,59.58
2022-10-05T17:15:32.306Z,59.78
2022-10-05T17:18:38.424Z,60.07
2022-10-05T17:21:15.880Z,59.72
2022-10-05T17:23:56.344Z,60.03
2022-10-05T17:26:45.710Z,59.68
2022-10-05T17:29:16.041Z,59.89
2022-10-05T17:32:08.552Z,60.07
2022-10-05T17:35:02.935Z,59.78
2022-10-05T17:37:35.876Z,60.25
2022-10-05T17:40:41.491Z,59.83
2022-10-05T17:43:15.473Z,60.22
2022-10-05T17:45:43.295Z,60.45
2022-10-05T17:48:42.583Z,59.97
2022-10-05T17:51:47.367Z,60.30
2022-10-05T17:54:44.591Z,60.43
2022-10-05T17:57:18.339Z,60.91
2022-10-05T17:59:57.980Z,61.00
2022-10-05T18:02:38.684Z,60.87
2022-10-05T18:05:12.332Z,60.67
2022-10-05T18:07:42.427Z,61.06
2022-10-05T18:10:11.710Z,60.99
2022-10-05T18:12:42.018Z,61.02
2022-10-05T18:15:10.564Z,61.05
2022-10-05T18:18:36.188Z,61.35
2022-10-05T18:21:15.477Z,61.33
2022-10-05T18:24:00.402Z,60.98
2022-10-05T18:27:05.992Z,60.87
2022-10-05T18:30:03.371Z,60.91
2022-10-05T18:32:59.395Z,60.88
2022-10-05T18:35:45.983Z,60.87
2022-10-05T18:38:33.241Z,60.66
2022-10-05T18:41:09.375Z,60.49
2022-10-05T18:43:47.778Z,60.54
2022-10-05T18:46:39.755Z,60.47
2022-10-05T18:49:43.574Z,60.67
2022-10-05T18:52:53.709Z,60.45
2022-10-05T18:55:43.983Z,60.31
2022-10-05T18:58:37.794Z,60.47
2022-10-05T19:01:36.685Z,60.46
2022-10-05T19:04:14.133Z,60.18
2022-10-05T19:06:59.868Z,60.29
2022-10-05T19:09:36.125Z,60.19
2022-10-05T19:12:12.513Z,60.38
2022-10-05T19:15:00.031Z,60.18
2022-10-05T19:17:46.438Z,60.16
2022-10-05T19:20:34.122Z,59.63
2022-10-05T19:23:22.832Z,59.74
2022-10-05T19:26:19.988Z,59.77
2022-10-05T19:29:13.871Z,59.78
2022-10-05T19:31:50.348Z,59.57
2022-10-05T19:34:57.373Z,59.55
2022-10-05T19:38:15.206Z,59.84
2022-10-05T19:40:53.685Z,59.72
2022-10-05T19:43:53.708Z,59.55
2022-10-05T19:46:33.298Z,59.56
2022-10-05T19:49:01.158Z,59.64
2022-10-05T19:51:31.627Z,59.59
2022-10-05T19:54:13.878Z,59.73
2022-10-05T19:56:50.607Z,59.74
2022-10-05T19:59:25.377Z,59.58
2022-10-05T20:01:59.242Z,59.59
2022-10-05T20:04:36.099Z,59.70
2022-10-05T20:07:05.161Z,59.58
2022-10-05T20:09:59.752Z,59.53
2022-10-05T20:12:53.391Z,59.47
2022-10-05T20:15:49.008Z,59.60
2022-10-05T20:18:58.420Z,59.31
2022-10-05T20:21:40.085Z,59.53
2022-10-05T20:24:14.193Z,59.68
2022-10-05T20:27:09.542Z,59.54
2022-10-05T20:29:40.167Z,59.83
2022-10-05T20:32:13.053Z,59.70
2022-10-05T20:34:45.940Z,59.94
2022-10-05T20:37:16.593Z,60.03
2022-10-05T20:39:45.746Z,60.05
2022-10-05T20:42:14.258Z,60.28
2022-10-05T20:44:42.680Z,60.31
2022-10-05T20:47:37.889Z,60.36
2022-10-05T20:50:09.193Z,60.53
2022-10-05T20:52:38.011Z,60.58
2022-10-05T20:55:09.138Z,60.37
2022-10-05T20:58:24.805Z,60.80
2022-10-05T21:01:11.350Z,60.81
2022-10-05T21:03:39.179Z,60.75
2022-10-05T21:06:09.219Z,60.92
2022-10-05T21:08:37.224Z,60.77
2022-10-05T21:11:11.619Z,60.96
2022-10-05T21:13:44.919Z,60.78
2022-10-05T21:16:17.616Z,61.11
2022-10-05T21:18:48.010Z,61.06
2022-10-05T21:21:18.341Z,61.22
2022-10-05T21:23:51.373Z,61.02
2022-10-05T21:26:19.393Z,61.33
2022-10-05T21:28:48.819Z,61.26
2022-10-05T21:31:16.702Z,61.07
2022-10-05T21:33:45.806Z,61.42
2022-10-05T21:36:38.569Z,61.39
2022-10-05T21:39:06.722Z,61.40
2022-10-05T21:42:00.591Z,61.32
2022-10-05T21:44:28.270Z,61.40
2022-10-05T21:46:56.764Z,61.62
2022-10-05T21:49:26.771Z,61.59
2022-10-05T21:51:54.739Z,61.89
2022-10-05T21:54:23.469Z,62.10
2022-10-05T21:56:55.611Z,62.09
2022-10-05T21:59:29.731Z,62.21
2022-10-05T22:01:57.580Z,62.31
2022-10-05T22:04:25.868Z,62.23
2022-10-05T22:06:55.667Z,62.24
2022-10-05T22:09:24.740Z,62.22
2022-10-05T22:11:52.585Z,62.33
2022-10-05T22:14:20.272Z,62.61
2022-10-05T22:16:48.082Z,62.64
2022-10-05T22:19:19.294Z,62.55
2022-10-05T22:21:46.957Z,62.60
2022-10-05T22:24:14.467Z,62.59
2022-10-05T22:26:46.438Z,62.66
2022-10-05T22:29:16.174Z,62.64
2022-10-05T22:31:46.410Z,62.81
2022-10-05T22:34:14.999Z,62.80
2022-10-05T22:36:42.989Z,62.88
2022-10-05T22:39:10.702Z,62.66
2022-10-05T22:41:38.415Z,62.81
2022-10-05T22:44:06.923Z,63.27
2022-10-05T22:46:35.611Z,63.21
2022-10-05T22:49:03.309Z,63.24
2022-10-05T22:51:31.710Z,63.33
2022-10-05T22:53:59.452Z,63.28
2022-10-05T22:56:27.254Z,63.39
2022-10-05T22:58:55.233Z,63.37
2022-10-05T23:01:22.978Z,63.46
2022-10-05T23:03:51.061Z,63.63
2022-10-05T23:06:20.635Z,63.65
2022-10-05T23:08:48.481Z,63.63
2022-10-05T23:11:18.944Z,63.87
2022-10-05T23:13:46.658Z,63.61
2022-10-05T23:16:16.940Z,63.88
2022-10-05T23:18:45.363Z,63.95
2022-10-05T23:21:13.061Z,64.09
2022-10-05T23:23:43.490Z,63.91
2022-10-05T23:26:11.822Z,64.10
2022-10-05T23:28:43.154Z,64.25
2022-10-05T23:31:11.095Z,64.15
2022-10-05T23:33:38.883Z,64.06
2022-10-05T23:36:13.976Z,64.30
2022-10-05T23:38:41.873Z,64.25
2022-10-05T23:41:09.984Z,64.46
2022-10-05T23:43:38.145Z,64.63
2022-10-05T23:46:07.240Z,64.72
2022-10-05T23:49:00.433Z,64.66
2022-10-05T23:51:28.538Z,64.71
2022-10-05T23:53:56.289Z,64.86
2022-10-05T23:56:24.213Z,64.74
2022-10-05T23:59:17.497Z,65.02
